This is the latest recevied weather packets stored in our database for station/object LIPZ. If no packets are shown the sender has not sent any weather packets the latest 10 day(s).
| Time | Temp. | Humidity | Pressure | Rain* | Wind** | Luminosity | Snow |
|---|---|---|---|---|---|---|---|
| 1777537805 | 13.89° C | 41% | 1025 hPa | - | - | - | - |
| 1777536904 | 13.89° C | 41% | 1025 hPa | - | - | - | - |
| 1777536004 | 13.89° C | 41% | 1025 hPa | - | - | - | - |
| 1777535104 | 12.78° C | 47% | 1024 hPa | - | - | - | - |
| 1777533304 | 12.22° C | 46% | 1024 hPa | - | - | - | - |
| 1777532405 | 12.22° C | 46% | 1024 hPa | - | - | - | - |
| 1777531503 | 12.22° C | 50% | 1024 hPa | - | - | - | - |
| 1777528805 | 11.11° C | 53% | 1023 hPa | - | - | - | - |
| 1777527904 | 11.11° C | 53% | 1023 hPa | - | - | - | - |
| 1777527005 | 11.11° C | 53% | 1023 hPa | - | - | - | - |
| 1777526104 | 8.89° C | 61% | 1023 hPa | - | - | - | - |
| 1777525204 | 8.89° C | 61% | 1023 hPa | - | - | - | - |
| 1777522504 | 10° C | 61% | 1023 hPa | - | - | - | - |
| 1777521605 | 10° C | 61% | 1023 hPa | - | - | - | - |
| 1777519804 | 10° C | 66% | 1023 hPa | - | - | - | - |
| 1777517103 | 10° C | 66% | 1022 hPa | - | - | - | - |
| 1777516205 | 10° C | 66% | 1022 hPa | - | - | - | - |
| 1777515304 | 11.11° C | 66% | 1022 hPa | - | - | - | - |
| 1777511704 | 11.11° C | 71% | 1022 hPa | - | - | - | - |
| 1777508104 | 12.22° C | 71% | 1021 hPa | - | - | - | - |
| 1777507204 | 12.22° C | 71% | 1021 hPa | - | - | - | - |
| 1777506304 | 12.22° C | 71% | 1021 hPa | - | - | - | - |
| 1777505405 | 12.22° C | 71% | 1021 hPa | - | - | - | - |
| 1777504504 | 12.78° C | 71% | 1021 hPa | - | - | - | - |
| 1777500904 | 12.78° C | 76% | 1020 hPa | - | - | - | - |
* Rain since midnight (hover to see other rain measurements)
** Current wind speed in m/s (hover to see current wind gust speed)